Time;durP1;ratioP1;P1;durP2;ratioP2;P2;SDS_P1;SDS_P2;PMS_P1;PMS_P2;Temp;Humidity;BMP_temperature;BMP_pressure;BME280_temperature;BME280_humidity;BME280_pressure;Samples;Min_cycle;Max_cycle;Signal;HPM_P1;HPM_P2
2022/12/07 00:01:11;;;;;;;;;;;0.90;99.90;;;;;;5057576;28;20064;-81
2022/12/07 00:03:39;;;;;;;0.88;0.88;;;0.90;99.90;;;;;;5051842;28;19913;-82
2022/12/07 00:06:05;;;;;;;;;;;0.80;99.90;;;;;;5059795;28;20546;-83
2022/12/07 00:08:32;;;;;;;0.68;0.68;;;0.70;99.90;;;;;;5061145;28;20412;-82
2022/12/07 00:11:06;;;;;;;0.20;0.20;;;0.70;99.90;;;;;;5054480;28;20052;-82
2022/12/07 00:13:33;;;;;;;0.73;0.73;;;0.70;99.90;;;;;;5055922;28;20028;-82
2022/12/07 00:16:32;;;;;;;1.30;1.20;;;0.70;99.90;;;;;;5058803;28;20043;-82
2022/12/07 00:18:58;;;;;;;0.20;0.20;;;0.70;99.90;;;;;;5032285;28;20041;-82
2022/12/07 00:21:29;;;;;;;0.40;0.40;;;0.70;99.90;;;;;;5060410;28;20036;-82
2022/12/07 00:23:56;;;;;;;0.55;0.55;;;0.80;99.90;;;;;;5059990;28;20044;-82
2022/12/07 00:26:28;;;;;;;0.28;0.28;;;0.60;99.90;;;;;;5051327;28;20086;-82
2022/12/07 00:28:57;;;;;;;0.50;0.50;;;0.60;99.90;;;;;;5058691;28;20092;-82
2022/12/07 00:31:26;;;;;;;1.23;1.15;;;0.60;99.90;;;;;;5048658;28;20029;-79
2022/12/07 00:33:52;;;;;;;0.38;0.38;;;0.50;99.90;;;;;;5056634;28;20025;-81
2022/12/07 00:36:21;;;;;;;0.20;0.20;;;0.60;99.90;;;;;;5057824;28;20037;-81
2022/12/07 00:38:47;;;;;;;0.08;0.08;;;0.60;99.90;;;;;;5048558;28;20886;-81
2022/12/07 00:41:17;;;;;;;0.28;0.28;;;0.50;99.90;;;;;;5054175;28;20182;-81
2022/12/07 00:43:44;;;;;;;1.17;0.90;;;0.50;99.90;;;;;;5057836;28;20124;-81
2022/12/07 00:46:10;;;;;;;;;;;0.50;99.90;;;;;;5050793;28;20033;-81
2022/12/07 00:48:36;;;;;;;0.05;0.05;;;0.40;99.90;;;;;;5062662;28;19920;-81
2022/12/07 00:51:03;;;;;;;0.55;0.55;;;0.40;99.90;;;;;;5054691;28;20025;-81
2022/12/07 00:53:28;;;;;;;0.32;0.32;;;0.40;99.90;;;;;;5052221;28;20037;-80
2022/12/07 00:55:55;;;;;;;1.55;0.68;;;0.40;99.90;;;;;;5049404;28;20036;-80
2022/12/07 00:58:22;;;;;;;;;;;0.40;99.90;;;;;;5051188;28;20033;-79
2022/12/07 01:00:47;;;;;;;0.25;0.15;;;0.30;99.90;;;;;;5051981;28;19913;-81
2022/12/07 01:03:14;;;;;;;0.10;0.10;;;0.30;99.90;;;;;;5063854;28;20044;-81
2022/12/07 01:05:40;;;;;;;;;;;0.30;99.90;;;;;;5061732;28;20575;-80
2022/12/07 01:08:06;;;;;;;0.10;0.10;;;0.20;99.90;;;;;;5060693;28;19934;-79
2022/12/07 01:10:32;;;;;;;0.55;0.55;;;0.20;99.90;;;;;;5052349;28;20029;-79
2022/12/07 01:12:58;;;;;;;0.25;0.25;;;0.20;99.90;;;;;;5052799;28;20089;-80
2022/12/07 01:15:25;;;;;;;0.20;0.20;;;0.10;99.90;;;;;;5049698;28;20056;-80
2022/12/07 01:17:51;;;;;;;;;;;0.10;99.90;;;;;;5052371;28;20037;-80
2022/12/07 01:20:17;;;;;;;0.10;0.10;;;0.10;99.90;;;;;;5047706;28;19974;-80
2022/12/07 01:22:43;;;;;;;0.05;0.05;;;0.10;99.90;;;;;;5056299;28;20040;-80
2022/12/07 01:25:11;;;;;;;1.58;0.68;;;0.10;99.90;;;;;;5048536;28;20041;-79
2022/12/07 01:27:37;;;;;;;1.20;0.40;;;0.00;99.90;;;;;;5051232;28;20066;-79
2022/12/07 01:30:05;;;;;;;0.40;0.40;;;0.00;99.90;;;;;;5049308;28;20037;-80
2022/12/07 01:32:31;;;;;;;0.35;0.35;;;0.00;99.90;;;;;;5051171;28;20083;-80
2022/12/07 01:34:57;;;;;;;0.70;0.70;;;0.00;99.90;;;;;;5054664;28;20036;-80
2022/12/07 01:37:23;;;;;;;0.20;0.20;;;0.00;99.90;;;;;;5056731;28;20025;-79
2022/12/07 01:39:49;;;;;;;1.27;1.27;;;0.10;99.90;;;;;;5057134;28;20514;-80
2022/12/07 01:42:15;;;;;;;0.47;0.45;;;0.00;99.90;;;;;;5061919;28;20037;-79
2022/12/07 01:45:18;;;;;;;0.10;0.10;;;0.10;99.90;;;;;;5055041;28;20033;-80
2022/12/07 01:47:50;;;;;;;0.57;0.57;;;0.10;99.90;;;;;;5057426;28;20032;-80
2022/12/07 01:50:16;;;;;;;0.10;0.10;;;0.00;99.90;;;;;;5062274;28;20041;-79
2022/12/07 01:52:44;;;;;;;1.35;0.85;;;-0.10;99.90;;;;;;5054925;28;20949;-80
2022/12/07 01:55:13;;;;;;;8.30;1.92;;;-0.10;99.90;;;;;;5054220;28;20025;-80
2022/12/07 01:57:43;;;;;;;1.27;1.23;;;0.00;99.90;;;;;;5054969;28;20071;-80
2022/12/07 02:00:10;;;;;;;0.28;0.28;;;0.00;99.90;;;;;;5060033;28;20037;-81
2022/12/07 02:02:58;;;;;;;0.10;0.10;;;-0.10;99.90;;;;;;5056793;28;20113;-82
2022/12/07 02:05:26;;;;;;;1.50;1.40;;;-0.10;99.90;;;;;;5046910;28;20078;-81
2022/12/07 02:07:55;;;;;;;0.50;0.50;;;0.00;99.90;;;;;;5051040;28;20029;-81
2022/12/07 02:10:23;;;;;;;0.63;0.30;;;-0.10;99.90;;;;;;5059411;28;20088;-82
2022/12/07 02:12:55;;;;;;;0.20;0.20;;;-0.20;99.90;;;;;;5061638;28;20108;-81
2022/12/07 02:15:25;;;;;;;0.70;0.70;;;-0.20;99.90;;;;;;5054060;28;20040;-82
2022/12/07 02:18:09;;;;;;;0.73;0.73;;;-0.30;99.90;;;;;;5062443;28;20032;-81
2022/12/07 02:21:00;;;;;;;0.30;0.30;;;-0.20;99.90;;;;;;5056940;28;20693;-81
2022/12/07 02:24:08;;;;;;;0.20;0.20;;;-0.30;99.90;;;;;;5044167;28;20044;-82
2022/12/07 02:26:45;;;;;;;0.32;0.32;;;-0.30;99.90;;;;;;5055550;28;20033;-82
2022/12/07 02:29:18;;;;;;;0.38;0.38;;;-0.20;99.90;;;;;;5055462;28;20025;-81
2022/12/07 02:31:53;;;;;;;1.08;0.35;;;-0.30;99.90;;;;;;5055960;28;20035;-81
2022/12/07 02:34:39;;;;;;;1.10;1.10;;;-0.30;99.90;;;;;;5057088;28;20384;-82
2022/12/07 02:37:18;;;;;;;1.95;1.85;;;-0.40;99.90;;;;;;5061170;28;20574;-81
2022/12/07 02:39:53;;;;;;;0.40;0.40;;;-0.40;99.90;;;;;;5052681;28;20096;-81
2022/12/07 02:42:32;;;;;;;0.52;0.30;;;-0.30;99.90;;;;;;5054030;28;20488;-82
2022/12/07 02:44:59;;;;;;;0.55;0.55;;;-0.40;99.90;;;;;;5064617;28;20079;-81
2022/12/07 02:47:26;;;;;;;0.25;0.25;;;-0.40;99.90;;;;;;5066049;28;20032;-80
2022/12/07 02:49:52;;;;;;;0.60;0.60;;;-0.40;99.90;;;;;;5059696;28;20032;-81
2022/12/07 02:52:17;;;;;;;0.15;0.15;;;-0.30;99.90;;;;;;5061455;28;20041;-81
2022/12/07 02:54:43;;;;;;;0.30;0.30;;;-0.40;99.90;;;;;;5057716;28;20401;-82
2022/12/07 02:57:27;;;;;;;0.10;0.10;;;-0.40;99.90;;;;;;5054045;28;20040;-80
2022/12/07 02:59:52;;;;;;;1.52;1.45;;;-0.50;99.90;;;;;;5055273;28;20037;-81
2022/12/07 03:02:21;;;;;;;0.10;0.10;;;-0.40;99.90;;;;;;5061467;28;20029;-80
2022/12/07 03:05:12;;;;;;;0.15;0.15;;;-0.40;99.90;;;;;;5059690;28;20041;-80
2022/12/07 03:07:57;;;;;;;0.65;0.65;;;-0.30;99.90;;;;;;5060015;28;20056;-81
2022/12/07 03:10:34;;;;;;;0.45;0.45;;;-0.30;99.90;;;;;;5057058;28;20071;-81
2022/12/07 03:13:23;;;;;;;0.30;0.30;;;-0.40;99.90;;;;;;5054937;28;20033;-81
2022/12/07 03:16:02;;;;;;;2.58;1.30;;;-0.40;99.90;;;;;;5059743;28;20055;-80
2022/12/07 03:18:31;;;;;;;0.40;0.40;;;-0.40;99.90;;;;;;5053819;28;20036;-81
2022/12/07 03:21:02;;;;;;;0.47;0.47;;;-0.50;99.90;;;;;;5060508;28;20029;-81
2022/12/07 03:23:31;;;;;;;0.70;0.70;;;-0.40;99.90;;;;;;5052029;28;20024;-80
2022/12/07 03:26:00;;;;;;;0.38;0.38;;;-0.50;99.90;;;;;;5053284;28;20078;-80
2022/12/07 03:28:32;;;;;;;0.22;0.22;;;-0.50;99.90;;;;;;5055851;28;20068;-80
2022/12/07 03:31:18;;;;;;;0.47;0.35;;;-0.50;99.90;;;;;;5055039;28;20040;-80
2022/12/07 03:34:05;;;;;;;0.30;0.30;;;-0.40;99.90;;;;;;5059066;28;20048;-80
2022/12/07 03:36:34;;;;;;;2.80;1.85;;;-0.40;99.90;;;;;;5060321;28;20051;-81
2022/12/07 03:39:27;;;;;;;0.98;0.85;;;-0.40;99.90;;;;;;5052397;28;20048;-81
2022/12/07 03:41:54;;;;;;;0.40;0.40;;;-0.40;99.90;;;;;;5052272;28;20028;-80
2022/12/07 03:44:20;;;;;;;0.10;0.10;;;-0.40;99.90;;;;;;5048175;28;20044;-80
2022/12/07 03:47:07;;;;;;;0.43;0.43;;;-0.40;99.90;;;;;;5058667;28;20045;-81
2022/12/07 03:49:59;;;;;;;0.52;0.52;;;-0.40;99.90;;;;;;5057845;28;20032;-80
2022/12/07 03:52:58;;;;;;;0.30;0.30;;;-0.40;99.90;;;;;;5050910;28;20025;-81
2022/12/07 03:55:32;;;;;;;0.35;0.35;;;-0.50;99.90;;;;;;5060107;28;20017;-81
2022/12/07 03:58:10;;;;;;;0.32;0.32;;;-0.60;99.90;;;;;;5058890;28;20040;-81
2022/12/07 04:00:36;;;;;;;0.10;0.10;;;-0.50;99.90;;;;;;5054781;28;20105;-81
2022/12/07 04:03:02;;;;;;;1.17;0.55;;;-0.40;99.90;;;;;;5054538;28;20029;-81
2022/12/07 04:05:28;;;;;;;0.45;0.45;;;-0.50;99.90;;;;;;5050974;28;20063;-80
2022/12/07 04:07:54;;;;;;;0.20;0.20;;;-0.60;99.90;;;;;;5061553;28;20399;-80
2022/12/07 04:10:19;;;;;;;0.43;0.43;;;-0.50;99.90;;;;;;5055123;28;20160;-82
2022/12/07 04:12:45;;;;;;;1.40;1.30;;;-0.40;99.90;;;;;;5052969;28;20037;-83
2022/12/07 04:15:11;;;;;;;0.30;0.30;;;-0.60;99.90;;;;;;5052862;28;20031;-83
2022/12/07 04:17:37;;;;;;;0.43;0.43;;;-0.60;99.90;;;;;;5050818;28;20111;-83
2022/12/07 04:20:05;;;;;;;1.15;1.10;;;-0.60;99.90;;;;;;5052956;28;20109;-80
2022/12/07 04:22:31;;;;;;;0.45;0.45;;;-0.60;99.90;;;;;;5048673;28;20033;-78
2022/12/07 04:24:56;;;;;;;2.33;1.75;;;-0.60;99.90;;;;;;5051081;28;20031;-80
2022/12/07 04:27:22;;;;;;;0.30;0.30;;;-0.60;99.90;;;;;;5053122;28;20040;-81
2022/12/07 04:29:48;;;;;;;0.20;0.20;;;-0.60;99.90;;;;;;5059051;28;20576;-80
2022/12/07 04:32:13;;;;;;;1.08;1.08;;;-0.70;99.90;;;;;;5052612;28;20036;-80
2022/12/07 04:34:39;;;;;;;0.38;0.38;;;-0.70;99.90;;;;;;5052013;28;20077;-80
2022/12/07 04:37:05;;;;;;;0.40;0.40;;;-0.60;99.90;;;;;;5051614;28;20042;-81
2022/12/07 04:39:32;;;;;;;0.10;0.10;;;-0.70;99.90;;;;;;5055377;28;20025;-80
2022/12/07 04:41:58;;;;;;;;;;;-0.70;99.90;;;;;;5057439;28;20135;-80
2022/12/07 04:44:25;;;;;;;0.10;0.10;;;-0.70;99.90;;;;;;5053667;28;19987;-82
2022/12/07 04:46:51;;;;;;;1.55;1.45;;;-0.70;99.90;;;;;;5058098;28;20033;-81
2022/12/07 04:49:18;;;;;;;1.52;1.42;;;-0.70;99.90;;;;;;5058251;28;20032;-82
2022/12/07 04:51:44;;;;;;;0.10;0.10;;;-0.70;99.90;;;;;;5061711;28;20468;-81
2022/12/07 04:54:10;;;;;;;4.87;1.60;;;-0.70;99.90;;;;;;5059356;28;20711;-81
2022/12/07 04:56:35;;;;;;;0.32;0.32;;;-0.70;99.90;;;;;;5064962;28;20461;-80
2022/12/07 04:59:02;;;;;;;0.47;0.47;;;-0.70;99.90;;;;;;5053001;28;20037;-80
2022/12/07 05:01:27;;;;;;;0.10;0.10;;;-0.80;99.90;;;;;;5054736;28;20041;-80
2022/12/07 05:03:53;;;;;;;0.10;0.10;;;-0.70;99.90;;;;;;5054891;28;20600;-80
2022/12/07 05:06:19;;;;;;;0.40;0.40;;;-0.80;99.90;;;;;;5063382;28;20044;-79
2022/12/07 05:08:45;;;;;;;0.20;0.20;;;-0.80;99.90;;;;;;5055075;28;20020;-80
2022/12/07 05:11:37;;;;;;;0.20;0.20;;;-0.80;99.90;;;;;;5058507;28;20590;-81
2022/12/07 05:14:02;;;;;;;0.50;0.50;;;-0.80;99.90;;;;;;5056627;28;20051;-80
2022/12/07 05:16:28;;;;;;;4.57;1.45;;;-0.80;99.90;;;;;;5054086;28;20083;-80
2022/12/07 05:18:54;;;;;;;0.80;0.80;;;-0.90;99.90;;;;;;5055552;28;20037;-82
2022/12/07 05:21:20;;;;;;;0.20;0.20;;;-0.90;99.90;;;;;;5049855;28;20377;-82
2022/12/07 05:23:46;;;;;;;0.57;0.57;;;-0.90;99.90;;;;;;5058128;28;20127;-81
2022/12/07 05:26:11;;;;;;;0.45;0.45;;;-0.90;99.90;;;;;;5056474;28;21016;-81
2022/12/07 05:28:37;;;;;;;0.10;0.10;;;-0.90;99.90;;;;;;5058322;28;20021;-81
2022/12/07 05:31:03;;;;;;;1.75;0.77;;;-0.90;99.90;;;;;;5055418;28;20463;-84
2022/12/07 05:33:29;;;;;;;0.43;0.43;;;-0.90;99.90;;;;;;5053269;28;20491;-85
2022/12/07 05:35:55;;;;;;;0.57;0.57;;;-0.90;99.90;;;;;;5048460;28;20455;-85
2022/12/07 05:38:20;;;;;;;0.10;0.10;;;-1.00;99.90;;;;;;5052138;28;20037;-85
2022/12/07 05:40:46;;;;;;;0.65;0.65;;;-1.00;99.90;;;;;;5057316;28;20044;-83
2022/12/07 05:43:12;;;;;;;0.10;0.10;;;-1.00;99.90;;;;;;5055604;28;20454;-82
2022/12/07 05:45:37;;;;;;;0.10;0.10;;;-1.00;99.90;;;;;;5053900;28;20067;-83
2022/12/07 05:48:03;;;;;;;0.20;0.20;;;-1.00;99.90;;;;;;5050547;28;20058;-80
2022/12/07 05:50:29;;;;;;;0.30;0.30;;;-1.00;99.90;;;;;;5054130;28;20112;-83
2022/12/07 05:52:55;;;;;;;0.10;0.10;;;-1.00;99.90;;;;;;5059326;28;20036;-84
2022/12/07 05:55:20;;;;;;;1.65;1.55;;;-1.00;99.90;;;;;;5059260;28;20033;-81
2022/12/07 06:00:31;;;;;;;0.20;0.20;;;-1.00;99.90;;;;;;5066265;28;20082;-82
2022/12/07 06:02:57;;;;;;;0.30;0.30;;;-1.00;99.90;;;;;;5061486;28;20025;-79
2022/12/07 06:05:23;;;;;;;2.42;1.38;;;-1.10;99.90;;;;;;5055553;28;20062;-81
2022/12/07 06:07:48;;;;;;;0.52;0.50;;;-1.10;99.90;;;;;;5059857;28;20605;-84
2022/12/07 06:10:14;;;;;;;1.00;0.98;;;-1.10;99.90;;;;;;5059709;28;20111;-82
2022/12/07 06:12:42;;;;;;;0.30;0.30;;;-1.00;99.90;;;;;;5051251;28;20059;-83
2022/12/07 06:15:09;;;;;;;0.38;0.38;;;-1.00;99.90;;;;;;5059285;28;20021;-82
2022/12/07 06:17:36;;;;;;;0.20;0.20;;;-1.10;99.90;;;;;;5062740;28;20032;-84
2022/12/07 06:20:03;;;;;;;0.10;0.10;;;-1.10;99.90;;;;;;5066995;28;20032;-84
2022/12/07 06:22:29;;;;;;;0.10;0.10;;;-1.20;99.90;;;;;;5059704;28;20040;-83
2022/12/07 06:24:54;;;;;;;0.10;0.10;;;-1.20;99.90;;;;;;5064670;28;20024;-84
2022/12/07 06:27:20;;;;;;;0.10;0.10;;;-1.20;99.90;;;;;;5059100;28;20174;-84
2022/12/07 06:29:46;;;;;;;0.32;0.32;;;-1.20;99.90;;;;;;5058667;28;20056;-81
2022/12/07 06:32:12;;;;;;;2.00;1.48;;;-1.20;99.90;;;;;;5058777;28;20032;-82
2022/12/07 06:34:37;;;;;;;0.35;0.35;;;-1.20;99.90;;;;;;5061853;28;20542;-82
2022/12/07 06:37:03;;;;;;;0.28;0.28;;;-1.20;99.90;;;;;;5065801;28;20156;-80
2022/12/07 06:39:29;;;;;;;0.40;0.40;;;-1.20;99.90;;;;;;5065083;28;20107;-80
2022/12/07 06:41:55;;;;;;;1.27;1.17;;;-1.20;99.90;;;;;;5068021;28;20063;-81
2022/12/07 06:44:22;;;;;;;0.10;0.10;;;-1.30;99.90;;;;;;5066633;28;20032;-82
2022/12/07 06:46:48;;;;;;;0.10;0.10;;;-1.40;99.90;;;;;;5065849;28;20039;-83
2022/12/07 06:49:15;;;;;;;0.15;0.15;;;-1.20;99.90;;;;;;5068694;28;20012;-81
2022/12/07 06:51:41;;;;;;;0.38;0.38;;;-1.30;99.90;;;;;;5068600;28;20082;-82
2022/12/07 06:54:08;;;;;;;0.10;0.10;;;-1.30;99.90;;;;;;5067549;28;20024;-81
2022/12/07 06:56:34;;;;;;;0.40;0.40;;;-1.30;99.90;;;;;;5065382;28;20411;-80
2022/12/07 06:59:00;;;;;;;0.57;0.57;;;-1.30;99.90;;;;;;5066612;28;20040;-81
2022/12/07 07:01:25;;;;;;;0.15;0.15;;;-1.30;99.90;;;;;;5069369;28;20036;-82
2022/12/07 07:03:52;;;;;;;0.47;0.47;;;-1.30;99.90;;;;;;5065896;28;20131;-81
2022/12/07 07:06:17;;;;;;;0.20;0.20;;;-1.30;99.90;;;;;;5071879;28;20046;-85
2022/12/07 07:08:43;;;;;;;1.15;1.05;;;-1.30;99.90;;;;;;5066405;28;20072;-86
2022/12/07 07:11:09;;;;;;;0.15;0.15;;;-1.30;99.90;;;;;;5064588;28;20032;-82
2022/12/07 07:13:35;;;;;;;0.15;0.15;;;-1.30;99.90;;;;;;5066119;28;20100;-82
2022/12/07 07:16:01;;;;;;;0.20;0.20;;;-1.30;99.90;;;;;;5065089;28;20036;-83
2022/12/07 07:18:27;;;;;;;3.13;1.85;;;-1.30;99.90;;;;;;5064642;28;20527;-83
2022/12/07 07:20:54;;;;;;;0.20;0.20;;;-1.30;99.90;;;;;;5069217;28;20459;-82
2022/12/07 07:23:20;;;;;;;0.15;0.15;;;-1.20;99.90;;;;;;5060990;28;20309;-83
2022/12/07 07:25:46;;;;;;;0.70;0.63;;;-1.10;99.90;;;;;;5066896;28;20873;-82
2022/12/07 07:28:12;;;;;;;0.82;0.80;;;-1.10;99.90;;;;;;5061961;28;20404;-82
2022/12/07 07:30:37;;;;;;;0.32;0.32;;;-1.10;99.90;;;;;;5067270;28;20032;-82
2022/12/07 07:33:05;;;;;;;0.10;0.10;;;-1.10;99.90;;;;;;5066238;28;20021;-83
2022/12/07 07:35:32;;;;;;;3.30;1.55;;;-1.10;99.90;;;;;;5068691;28;20039;-81
2022/12/07 07:37:58;;;;;;;0.10;0.10;;;-1.10;99.90;;;;;;5066117;28;20496;-80
2022/12/07 07:40:25;;;;;;;0.40;0.40;;;-1.10;99.90;;;;;;5068168;28;20040;-88
2022/12/07 07:42:52;;;;;;;0.20;0.20;;;-1.10;99.90;;;;;;5056576;28;20343;-86
2022/12/07 07:45:21;;;;;;;0.30;0.30;;;-1.10;99.90;;;;;;5056029;28;20024;-88
2022/12/07 07:47:48;;;;;;;0.22;0.22;;;-1.00;99.90;;;;;;5068100;28;20056;-87
2022/12/07 07:50:13;;;;;;;1.50;1.40;;;-0.40;99.90;;;;;;5067820;28;20029;-88
2022/12/07 07:52:39;;;;;;;0.73;0.73;;;-0.10;99.90;;;;;;5068673;28;20266;-89
2022/12/07 07:55:08;;;;;;;0.50;0.50;;;0.10;99.90;;;;;;5067938;28;20028;-88
2022/12/07 07:57:38;;;;;;;0.20;0.20;;;0.20;99.90;;;;;;5067400;28;20025;-87
2022/12/07 08:00:07;;;;;;;0.10;0.10;;;0.30;99.90;;;;;;5067000;28;20488;-88
2022/12/07 08:02:32;;;;;;;0.10;0.10;;;0.50;99.90;;;;;;5070334;28;20024;-87
2022/12/07 08:04:58;;;;;;;0.10;0.10;;;0.60;99.90;;;;;;5064647;28;20055;-87
2022/12/07 08:07:24;;;;;;;1.70;0.40;;;0.70;99.90;;;;;;5065247;28;20028;-88
2022/12/07 08:09:50;;;;;;;0.57;0.57;;;0.70;99.90;;;;;;5063440;28;20062;-87
2022/12/07 08:12:15;;;;;;;0.20;0.20;;;0.90;99.90;;;;;;5063397;28;20021;-86
2022/12/07 08:14:41;;;;;;;0.43;0.43;;;0.90;99.90;;;;;;5068458;28;20631;-87
2022/12/07 08:17:06;;;;;;;0.10;0.10;;;1.00;99.90;;;;;;5066052;28;20028;-87
2022/12/07 08:19:33;;;;;;;1.33;0.77;;;1.00;99.90;;;;;;5066382;28;20039;-86
2022/12/07 08:21:58;;;;;;;0.20;0.20;;;1.10;99.90;;;;;;5061755;28;20024;-85
2022/12/07 08:24:25;;;;;;;0.30;0.30;;;1.00;99.90;;;;;;5066639;28;20555;-86
2022/12/07 08:26:50;;;;;;;0.20;0.20;;;1.20;99.90;;;;;;5067494;28;20040;-86
2022/12/07 08:29:16;;;;;;;0.20;0.20;;;1.20;99.90;;;;;;5067693;28;20050;-86
2022/12/07 08:31:42;;;;;;;0.13;0.13;;;1.40;99.90;;;;;;5060162;28;20021;-85
2022/12/07 08:34:10;;;;;;;0.20;0.20;;;1.30;99.90;;;;;;5065326;28;20035;-85
2022/12/07 08:36:36;;;;;;;1.25;0.93;;;1.40;99.90;;;;;;5065136;28;20032;-85
2022/12/07 08:39:02;;;;;;;0.30;0.30;;;1.60;99.90;;;;;;5062128;28;20572;-85
2022/12/07 08:41:28;;;;;;;0.70;0.70;;;1.60;99.90;;;;;;5064869;28;20029;-85
2022/12/07 08:43:54;;;;;;;0.20;0.20;;;1.60;99.90;;;;;;5065354;28;20543;-85
2022/12/07 08:46:46;;;;;;;0.10;0.10;;;1.70;99.90;;;;;;5058524;28;20847;-85
2022/12/07 08:49:27;;;;;;;0.15;0.15;;;1.80;99.90;;;;;;5058173;28;20114;-85
2022/12/07 08:51:54;;;;;;;0.22;0.22;;;2.00;99.90;;;;;;5066741;28;20050;-84
2022/12/07 08:54:20;;;;;;;0.57;0.57;;;2.00;99.90;;;;;;5066706;28;20804;-85
2022/12/07 08:56:47;;;;;;;0.10;0.10;;;2.10;99.90;;;;;;5063071;28;20208;-85
2022/12/07 08:59:15;;;;;;;0.20;0.20;;;2.10;99.90;;;;;;5064367;28;20040;-84
2022/12/07 09:01:41;;;;;;;0.17;0.17;;;2.10;99.90;;;;;;5060925;28;20900;-85
2022/12/07 09:04:07;;;;;;;0.20;0.20;;;2.20;99.90;;;;;;5063013;28;20032;-84
2022/12/07 09:06:33;;;;;;;0.38;0.38;;;2.20;99.90;;;;;;5064938;28;20865;-84
2022/12/07 09:09:01;;;;;;;0.98;0.98;;;2.40;99.90;;;;;;5067041;28;20025;-84
2022/12/07 09:11:27;;;;;;;1.00;0.88;;;2.40;99.90;;;;;;5065792;28;20092;-85
2022/12/07 09:13:53;;;;;;;0.10;0.10;;;2.40;99.90;;;;;;5061318;28;20066;-85
2022/12/07 09:16:18;;;;;;;0.20;0.20;;;2.50;99.90;;;;;;5063044;28;20033;-85
2022/12/07 09:18:44;;;;;;;0.10;0.10;;;2.50;99.90;;;;;;5062769;28;20024;-85
2022/12/07 09:21:10;;;;;;;0.65;0.65;;;2.50;99.90;;;;;;5057664;28;20048;-85
2022/12/07 09:23:35;;;;;;;1.17;1.02;;;2.40;99.90;;;;;;5059576;28;20032;-84
2022/12/07 09:26:03;;;;;;;0.10;0.10;;;2.50;99.90;;;;;;5055004;28;20033;-85
2022/12/07 09:28:30;;;;;;;0.40;0.40;;;2.40;99.90;;;;;;5058399;28;20032;-84
2022/12/07 09:30:56;;;;;;;2.30;1.48;;;2.50;99.90;;;;;;5064539;28;20126;-85
2022/12/07 09:33:22;;;;;;;0.17;0.17;;;2.60;99.90;;;;;;5063637;28;20162;-85
2022/12/07 09:35:49;;;;;;;0.35;0.35;;;2.60;99.90;;;;;;5057434;28;20040;-85
2022/12/07 09:38:16;;;;;;;0.20;0.20;;;2.70;99.90;;;;;;5059103;28;20024;-85
2022/12/07 09:40:45;;;;;;;0.60;0.60;;;2.70;99.90;;;;;;5055626;28;20033;-85
2022/12/07 09:43:17;;;;;;;0.10;0.10;;;2.80;99.90;;;;;;5057366;28;20038;-86
2022/12/07 09:45:46;;;;;;;0.10;0.10;;;3.00;99.90;;;;;;5055341;28;20078;-85
2022/12/07 09:48:36;;;;;;;0.20;0.20;;;3.00;99.90;;;;;;5070691;28;20021;-85
2022/12/07 09:51:08;;;;;;;0.30;0.30;;;3.20;99.90;;;;;;5070350;28;20027;-85
2022/12/07 09:53:37;;;;;;;0.75;0.43;;;3.20;99.90;;;;;;5069060;28;20365;-85
2022/12/07 09:56:04;;;;;;;0.20;0.20;;;3.20;99.90;;;;;;5069064;28;20024;-85
2022/12/07 09:58:31;;;;;;;0.50;0.50;;;3.20;99.90;;;;;;5067561;28;20110;-85
2022/12/07 10:00:59;;;;;;;;;;;3.30;99.90;;;;;;5068044;28;20119;-85
2022/12/07 10:03:28;;;;;;;0.10;0.10;;;3.30;99.90;;;;;;5070475;28;19944;-84
2022/12/07 10:05:55;;;;;;;0.25;0.25;;;3.10;99.90;;;;;;5071225;28;20045;-84
2022/12/07 10:08:21;;;;;;;3.95;0.63;;;3.30;99.90;;;;;;5068096;28;20029;-84
2022/12/07 10:10:55;;;;;;;0.22;0.22;;;3.40;99.90;;;;;;5069390;28;20399;-84
2022/12/07 10:13:34;;;;;;;0.10;0.10;;;3.40;99.90;;;;;;5067698;28;20082;-84
2022/12/07 10:16:00;;;;;;;0.50;0.50;;;3.50;99.90;;;;;;5066221;28;20555;-84
2022/12/07 10:18:27;;;;;;;0.10;0.10;;;3.40;99.90;;;;;;5063993;28;20037;-84
2022/12/07 10:21:11;;;;;;;31.48;2.22;;;3.40;99.90;;;;;;5063911;28;20032;-83
2022/12/07 10:23:39;;;;;;;0.40;0.40;;;3.50;99.90;;;;;;5064646;28;20031;-84
2022/12/07 10:26:53;;;;;;;0.65;0.65;;;3.70;99.90;;;;;;5065480;28;20555;-84
2022/12/07 10:29:33;;;;;;;0.65;0.65;;;3.80;99.90;;;;;;5033254;28;20041;-84
2022/12/07 10:32:05;;;;;;;0.22;0.22;;;3.60;99.90;;;;;;5064473;28;20032;-84
2022/12/07 10:34:36;;;;;;;0.10;0.10;;;3.70;99.90;;;;;;5063720;28;20032;-84
2022/12/07 10:37:17;;;;;;;0.20;0.20;;;3.70;99.90;;;;;;5063940;28;20127;-83
2022/12/07 10:39:53;;;;;;;0.10;0.10;;;3.70;99.90;;;;;;5069168;28;20028;-83
2022/12/07 10:42:24;;;;;;;0.75;0.60;;;3.80;99.90;;;;;;5073505;28;20052;-82
2022/12/07 10:45:06;;;;;;;1.15;1.05;;;3.70;99.90;;;;;;5071122;28;20028;-83
2022/12/07 10:47:46;;;;;;;0.10;0.10;;;3.70;99.90;;;;;;5068824;28;20514;-83
2022/12/07 10:50:21;;;;;;;0.30;0.30;;;3.80;99.90;;;;;;5067590;28;20029;-83
2022/12/07 10:53:23;;;;;;;0.10;0.10;;;3.70;99.90;;;;;;5069817;28;20103;-83
2022/12/07 10:55:52;;;;;;;0.10;0.10;;;3.80;99.90;;;;;;5069772;28;20474;-83
2022/12/07 10:58:30;;;;;;;0.80;0.55;;;3.80;99.90;;;;;;5069466;28;20120;-83
2022/12/07 11:01:08;;;;;;;0.10;0.10;;;3.70;99.90;;;;;;5049870;28;20069;-84
2022/12/07 11:04:11;;;;;;;0.10;0.10;;;3.70;99.90;;;;;;5055821;28;20033;-83
2022/12/07 11:06:58;;;;;;;0.22;0.22;;;3.80;99.90;;;;;;5070542;28;20048;-84
2022/12/07 11:09:41;;;;;;;0.40;0.40;;;3.80;99.90;;;;;;5066594;28;20017;-84
2022/12/07 11:12:22;;;;;;;0.20;0.20;;;3.90;99.90;;;;;;5073550;28;20476;-83
2022/12/07 11:15:04;;;;;;;0.10;0.10;;;4.00;99.90;;;;;;5072351;28;20032;-83
2022/12/07 11:17:32;;;;;;;0.10;0.10;;;4.00;99.90;;;;;;5060690;28;20397;-84
2022/12/07 11:20:40;;;;;;;0.28;0.28;;;4.00;99.90;;;;;;5064652;28;20033;-83
2022/12/07 11:23:35;;;;;;;0.28;0.28;;;4.10;99.90;;;;;;5071990;28;20043;-84
2022/12/07 11:26:18;;;;;;;0.25;0.25;;;4.20;99.90;;;;;;5071525;28;20087;-84
2022/12/07 11:29:02;;;;;;;0.10;0.10;;;4.20;99.90;;;;;;5066456;28;20024;-84
2022/12/07 11:31:56;;;;;;;0.60;0.30;;;4.20;99.90;;;;;;5061045;28;20025;-84
2022/12/07 11:34:36;;;;;;;0.40;0.40;;;4.20;99.90;;;;;;5067987;28;20040;-84
2022/12/07 11:37:28;;;;;;;0.22;0.22;;;4.30;99.90;;;;;;5070239;28;20021;-84
2022/12/07 11:40:36;;;;;;;0.90;0.82;;;4.30;99.90;;;;;;5075917;28;20032;-83
2022/12/07 11:43:17;;;;;;;0.25;0.25;;;4.20;99.90;;;;;;5063238;28;20032;-83
2022/12/07 11:45:46;;;;;;;0.30;0.30;;;4.30;99.90;;;;;;5078538;28;20020;-84
2022/12/07 11:48:38;;;;;;;0.10;0.10;;;4.40;99.90;;;;;;5070981;28;20501;-84
2022/12/07 11:51:09;;;;;;;0.10;0.10;;;4.50;99.90;;;;;;5071878;28;20131;-84
2022/12/07 11:53:35;;;;;;;1.10;1.00;;;4.50;99.90;;;;;;5064512;28;20529;-85
2022/12/07 11:56:20;;;;;;;0.25;0.25;;;4.60;99.90;;;;;;5069104;28;20511;-83
2022/12/07 11:58:59;;;;;;;0.40;0.40;;;4.60;99.90;;;;;;5070457;28;20025;-83
2022/12/07 12:02:11;;;;;;;0.20;0.20;;;4.50;99.90;;;;;;5066046;28;20040;-84
2022/12/07 12:05:12;;;;;;;0.35;0.35;;;4.60;99.90;;;;;;5069885;28;20047;-83
2022/12/07 12:07:39;;;;;;;0.65;0.35;;;4.60;99.90;;;;;;5066784;28;20035;-83
2022/12/07 12:10:31;;;;;;;0.10;0.10;;;4.60;99.90;;;;;;5064172;28;20048;-83
2022/12/07 12:13:19;;;;;;;0.15;0.15;;;4.80;99.90;;;;;;5065443;28;20090;-83
2022/12/07 12:16:09;;;;;;;0.10;0.10;;;4.80;99.90;;;;;;5087542;28;20125;-84
2022/12/07 12:19:14;;;;;;;0.20;0.20;;;4.90;99.90;;;;;;5068966;28;20032;-84
2022/12/07 12:21:41;;;;;;;0.10;0.10;;;4.90;99.90;;;;;;5074295;28;20036;-83
2022/12/07 12:24:25;;;;;;;0.20;0.20;;;4.80;99.90;;;;;;5073994;28;20024;-84
2022/12/07 12:27:09;;;;;;;0.85;0.85;;;4.80;99.90;;;;;;5074496;28;20025;-84
2022/12/07 12:29:47;;;;;;;0.65;0.55;;;4.90;99.90;;;;;;5073643;28;20514;-84
2022/12/07 12:32:29;;;;;;;0.10;0.10;;;4.90;99.90;;;;;;5070574;28;20035;-84
2022/12/07 12:35:26;;;;;;;0.15;0.15;;;4.90;99.90;;;;;;5064001;28;20106;-85
2022/12/07 12:38:15;;;;;;;0.10;0.10;;;4.90;99.90;;;;;;5063264;28;20082;-84
2022/12/07 12:40:42;;;;;;;0.10;0.10;;;5.00;99.90;;;;;;5063569;28;20892;-83
2022/12/07 12:43:50;;;;;;;0.43;0.43;;;5.00;99.90;;;;;;5072071;28;20054;-83
2022/12/07 12:46:33;;;;;;;0.82;0.82;;;5.00;99.90;;;;;;5065828;28;20123;-83
2022/12/07 12:49:20;;;;;;;0.63;0.63;;;5.00;99.90;;;;;;5068456;28;20086;-84
2022/12/07 12:52:12;;;;;;;0.20;0.20;;;5.10;99.90;;;;;;5071245;28;20024;-84
2022/12/07 12:54:56;;;;;;;0.20;0.20;;;5.00;99.90;;;;;;5041080;28;20519;-83
2022/12/07 12:57:27;;;;;;;0.30;0.30;;;5.10;99.90;;;;;;5073439;28;20036;-84
2022/12/07 12:59:53;;;;;;;0.10;0.10;;;5.10;99.90;;;;;;5072444;28;20033;-83
2022/12/07 13:02:47;;;;;;;0.50;0.50;;;5.10;99.90;;;;;;5063866;28;20043;-84
2022/12/07 13:05:13;;;;;;;0.85;0.82;;;5.20;99.90;;;;;;5068012;28;20436;-84
2022/12/07 13:07:47;;;;;;;0.57;0.57;;;5.10;99.90;;;;;;5067580;28;20040;-84
2022/12/07 13:10:30;;;;;;;0.30;0.30;;;5.20;99.90;;;;;;5068388;28;20016;-83
2022/12/07 13:13:05;;;;;;;0.10;0.10;;;5.40;99.90;;;;;;5058994;28;20092;-83
2022/12/07 13:15:50;;;;;;;0.52;0.52;;;5.40;99.90;;;;;;5061535;28;20055;-84
2022/12/07 13:18:28;;;;;;;0.15;0.15;;;5.50;99.90;;;;;;5060704;28;20024;-84
2022/12/07 13:20:56;;;;;;;0.10;0.10;;;5.60;99.90;;;;;;5061708;28;20676;-84
2022/12/07 13:23:37;;;;;;;0.20;0.20;;;5.50;99.90;;;;;;5060077;28;20025;-85